14:33
Airports
History
Links
Donate
Help keep this website running!
PayPal
Bitcoin
This page is community maintained. The information is intended for PC simulator navigation or reference.
Always use approved charts for navigation.
SDAA
Araras
Araras (SDAA)
Araras, São Paulo, Brazil (13605)
(C)
Lat/Lng:22° 20' 20.84" S / 47° 21' 33.36" W
-22.339121 / -47.359266
Elevation:2247'ft / 685mMSL
ID / ICAO:SDAA
Runways:1
Longest:12-30
Asphalt 1,159m / 3,802ft
Controlled:Yes
Nearby Weather14:00 GMT 2017-09-20
Nearby weather at SBYS, CAMPO FONTENELLE located 24.5 nautical miles from SDAA
Altimeter: 30.18
Visibility: 6.2 statute miles
Wind: 7 knots (from 080°)
Temp: 30°c / 86°f
Humidity: 27.1%

METAR: SBYS 201400Z 08007KT CAVOK 30/09 Q1022

(Powered by phpweather)
Runway 12 / 30
Dimensions:1158.7 x 29.9m 3802' x 98'ft
Surface:Asphalt
Runway 12 [A]Runway 30 [B]
Heading:116°TH 296°TH
Lat:
Lng:
22° 20' 12.32"S
47° 21' 51.53"W
22° 20' 29.35"S
47° 21' 15.18"W
User Notes and Comments
22° 20' 20.84" S / 47° 21' 33.36" W
Distance To
Airport ID:
Nearby Airports
(C) Leme 7.9 NM
SDLL N 349°
(C) Rio Claro 14.4 NM
SDRK WSW 244°
4 Limeira 18.6 NM
SDYM S 190°
4 Pirassununga 21.9 NM
SDPY N 349°
4 Edra do Brasil 22.9 NM
SDED WSW 252°
4 Fazenda Boa Vista 24.2 NM
SSMV NNW 327°
(C) CAMPO FONTENELLE 24.5 NM
SBYS ( WX ) N
VFR Chart
Flight Planning at SkyVector.com